MMVR/VER METAR and TAF weather

Enter ICAO airport designator
Station Type Date Time Source
MMVR METAR 2021/01/22 05:42 UTC NOAA

MMVR 220542Z 00000KT 5SM SKC 21/21 A2995 RMK SLP134 52010 9// HZY BR


Station Type Date Time Source
MMVR Decoded METAR 2021/01/22 05:42 UTC NOAA

Veracruz / Las Bajadas / General Heriberto Jara, Mexico (MMVR) 19-09N 096-11W
Jan 22, 2021 - 12:42 AM EST / 2021.01.22 0542 UTC
Wind: Calm:0
Visibility: 5 mile(s):0
Sky conditions: clear
Temperature: 69 F (21 C)
Dew Point: 69 F (21 C)
Relative Humidity: 100%
Pressure (altimeter): 29.95 in. Hg (1014 hPa)
Pressure tendency: 0.03 inches (1.0 hPa) higher than three hours ago
ob: MMVR 220542Z 00000KT 5SM SKC 21/21 A2995 RMK SLP134 52010 9// HZY BR
cycle: 5

Station Type Date Time Source
MMVR TAF 2021/01/22 06:42 UTC NOAA

TAF MMVR 220341Z 2206/2306 00000KT 5SM HZ SCT015 TX28/2220Z TN20/2212Z
TEMPO 2210/2214 2SM BR SCT008
FM221600 08008KT P6SM SCT015
FM230200 08005KT 6SM HZ SCT015

Example: see airport list